sensor_id;sensor_type;location;lat;lon;timestamp;P1;durP1;ratioP1;P2;durP2;ratioP2
14102;SDS011;7129;48.832;12.472;2022-09-21T00:03:02;4.47;;;1.95;;
14102;SDS011;7129;48.832;12.472;2022-09-21T00:08:05;2.10;;;2.00;;
14102;SDS011;7129;48.832;12.472;2022-09-21T00:13:09;3.58;;;2.40;;
14102;SDS011;7129;48.832;12.472;2022-09-21T00:18:14;2.20;;;1.90;;
14102;SDS011;7129;48.832;12.472;2022-09-21T00:23:16;2.60;;;2.13;;
14102;SDS011;7129;48.832;12.472;2022-09-21T00:28:18;2.90;;;1.92;;
14102;SDS011;7129;48.832;12.472;2022-09-21T00:33:21;3.50;;;2.20;;
14102;SDS011;7129;48.832;12.472;2022-09-21T00:44:27;2.00;;;1.80;;
14102;SDS011;7129;48.832;12.472;2022-09-21T00:49:32;3.35;;;2.20;;
14102;SDS011;7129;48.832;12.472;2022-09-21T00:54:37;2.22;;;1.73;;
14102;SDS011;7129;48.832;12.472;2022-09-21T00:59:43;2.65;;;2.17;;
14102;SDS011;7129;48.832;12.472;2022-09-21T01:04:47;2.35;;;2.13;;
14102;SDS011;7129;48.832;12.472;2022-09-21T01:09:53;2.03;;;1.88;;
14102;SDS011;7129;48.832;12.472;2022-09-21T01:15:02;4.20;;;2.25;;
14102;SDS011;7129;48.832;12.472;2022-09-21T01:25:51;3.17;;;2.30;;
14102;SDS011;7129;48.832;12.472;2022-09-21T01:31:03;1.98;;;1.88;;
14102;SDS011;7129;48.832;12.472;2022-09-21T01:36:11;3.28;;;1.92;;
14102;SDS011;7129;48.832;12.472;2022-09-21T01:41:15;4.15;;;2.10;;
14102;SDS011;7129;48.832;12.472;2022-09-21T01:46:24;2.67;;;2.03;;
14102;SDS011;7129;48.832;12.472;2022-09-21T01:51:30;5.13;;;2.28;;
14102;SDS011;7129;48.832;12.472;2022-09-21T01:56:34;3.28;;;2.20;;
14102;SDS011;7129;48.832;12.472;2022-09-21T02:01:42;2.60;;;2.03;;
14102;SDS011;7129;48.832;12.472;2022-09-21T02:06:48;2.45;;;2.08;;
14102;SDS011;7129;48.832;12.472;2022-09-21T02:11:51;3.08;;;1.90;;
14102;SDS011;7129;48.832;12.472;2022-09-21T02:16:56;3.80;;;2.05;;
14102;SDS011;7129;48.832;12.472;2022-09-21T02:22:08;3.13;;;1.98;;
14102;SDS011;7129;48.832;12.472;2022-09-21T02:27:17;2.00;;;1.80;;
14102;SDS011;7129;48.832;12.472;2022-09-21T02:32:29;5.05;;;2.08;;
14102;SDS011;7129;48.832;12.472;2022-09-21T02:37:39;2.85;;;1.90;;
14102;SDS011;7129;48.832;12.472;2022-09-21T02:42:46;3.03;;;2.10;;
14102;SDS011;7129;48.832;12.472;2022-09-21T02:47:55;2.90;;;2.30;;
14102;SDS011;7129;48.832;12.472;2022-09-21T02:53:00;3.45;;;2.20;;
14102;SDS011;7129;48.832;12.472;2022-09-21T02:58:06;2.40;;;2.20;;
14102;SDS011;7129;48.832;12.472;2022-09-21T03:03:17;3.55;;;2.20;;
14102;SDS011;7129;48.832;12.472;2022-09-21T03:08:20;3.10;;;2.80;;
14102;SDS011;7129;48.832;12.472;2022-09-21T03:13:22;2.33;;;2.13;;
14102;SDS011;7129;48.832;12.472;2022-09-21T03:18:25;5.20;;;2.45;;
14102;SDS011;7129;48.832;12.472;2022-09-21T03:23:27;3.50;;;2.55;;
14102;SDS011;7129;48.832;12.472;2022-09-21T03:28:29;3.58;;;2.40;;
14102;SDS011;7129;48.832;12.472;2022-09-21T03:39:34;3.47;;;2.55;;
14102;SDS011;7129;48.832;12.472;2022-09-21T03:44:36;2.42;;;2.22;;
14102;SDS011;7129;48.832;12.472;2022-09-21T04:01:32;3.85;;;2.78;;
14102;SDS011;7129;48.832;12.472;2022-09-21T04:06:35;4.72;;;3.08;;
14102;SDS011;7129;48.832;12.472;2022-09-21T04:11:37;3.35;;;2.78;;
14102;SDS011;7129;48.832;12.472;2022-09-21T04:16:40;3.97;;;2.17;;
14102;SDS011;7129;48.832;12.472;2022-09-21T04:21:42;2.63;;;2.42;;
14102;SDS011;7129;48.832;12.472;2022-09-21T04:26:44;2.58;;;2.38;;
14102;SDS011;7129;48.832;12.472;2022-09-21T04:31:48;4.43;;;3.38;;
14102;SDS011;7129;48.832;12.472;2022-09-21T04:36:50;4.25;;;3.85;;
14102;SDS011;7129;48.832;12.472;2022-09-21T04:41:52;3.53;;;3.10;;
14102;SDS011;7129;48.832;12.472;2022-09-21T04:46:56;6.70;;;3.60;;
14102;SDS011;7129;48.832;12.472;2022-09-21T04:52:32;5.40;;;4.80;;
14102;SDS011;7129;48.832;12.472;2022-09-21T04:57:35;6.28;;;4.90;;
14102;SDS011;7129;48.832;12.472;2022-09-21T05:02:39;6.10;;;4.40;;
14102;SDS011;7129;48.832;12.472;2022-09-21T05:07:41;4.78;;;4.30;;
14102;SDS011;7129;48.832;12.472;2022-09-21T05:12:43;4.97;;;3.70;;
14102;SDS011;7129;48.832;12.472;2022-09-21T05:17:46;9.48;;;4.78;;
14102;SDS011;7129;48.832;12.472;2022-09-21T05:22:48;8.30;;;3.65;;
14102;SDS011;7129;48.832;12.472;2022-09-21T05:27:50;5.43;;;4.00;;
14102;SDS011;7129;48.832;12.472;2022-09-21T05:32:55;18.85;;;4.43;;
14102;SDS011;7129;48.832;12.472;2022-09-21T05:38:03;10.70;;;4.28;;
14102;SDS011;7129;48.832;12.472;2022-09-21T05:43:13;10.50;;;4.40;;
14102;SDS011;7129;48.832;12.472;2022-09-21T05:53:52;4.47;;;3.38;;
14102;SDS011;7129;48.832;12.472;2022-09-21T05:59:03;4.30;;;3.72;;
14102;SDS011;7129;48.832;12.472;2022-09-21T06:04:14;3.05;;;2.75;;
14102;SDS011;7129;48.832;12.472;2022-09-21T06:09:16;4.75;;;3.25;;
14102;SDS011;7129;48.832;12.472;2022-09-21T06:14:19;3.83;;;3.22;;
14102;SDS011;7129;48.832;12.472;2022-09-21T06:19:37;5.15;;;2.97;;
14102;SDS011;7129;48.832;12.472;2022-09-21T06:24:38;9.70;;;3.50;;
14102;SDS011;7129;48.832;12.472;2022-09-21T06:40:53;7.43;;;3.53;;
14102;SDS011;7129;48.832;12.472;2022-09-21T06:46:02;3.28;;;3.08;;
14102;SDS011;7129;48.832;12.472;2022-09-21T06:51:04;4.35;;;3.97;;
14102;SDS011;7129;48.832;12.472;2022-09-21T06:56:08;6.43;;;3.95;;
14102;SDS011;7129;48.832;12.472;2022-09-21T07:01:11;3.53;;;3.30;;
14102;SDS011;7129;48.832;12.472;2022-09-21T07:06:14;4.15;;;3.85;;
14102;SDS011;7129;48.832;12.472;2022-09-21T07:11:18;3.38;;;3.15;;
14102;SDS011;7129;48.832;12.472;2022-09-21T07:21:31;8.57;;;4.97;;
14102;SDS011;7129;48.832;12.472;2022-09-21T07:26:34;8.93;;;5.60;;
14102;SDS011;7129;48.832;12.472;2022-09-21T07:31:50;7.57;;;6.22;;
14102;SDS011;7129;48.832;12.472;2022-09-21T07:37:10;9.65;;;8.75;;
14102;SDS011;7129;48.832;12.472;2022-09-21T07:42:13;5.18;;;4.78;;
14102;SDS011;7129;48.832;12.472;2022-09-21T07:47:15;19.92;;;6.90;;
14102;SDS011;7129;48.832;12.472;2022-09-21T07:52:18;7.32;;;6.07;;
14102;SDS011;7129;48.832;12.472;2022-09-21T07:57:21;5.85;;;5.32;;
14102;SDS011;7129;48.832;12.472;2022-09-21T08:02:40;7.68;;;6.88;;
14102;SDS011;7129;48.832;12.472;2022-09-21T08:07:42;8.73;;;7.43;;
14102;SDS011;7129;48.832;12.472;2022-09-21T08:12:46;5.90;;;5.40;;
14102;SDS011;7129;48.832;12.472;2022-09-21T08:17:48;9.18;;;6.75;;
14102;SDS011;7129;48.832;12.472;2022-09-21T08:22:59;9.27;;;7.15;;
14102;SDS011;7129;48.832;12.472;2022-09-21T08:28:04;7.03;;;6.32;;
14102;SDS011;7129;48.832;12.472;2022-09-21T08:33:06;9.82;;;7.28;;
14102;SDS011;7129;48.832;12.472;2022-09-21T08:38:08;6.88;;;6.28;;
14102;SDS011;7129;48.832;12.472;2022-09-21T08:43:11;6.80;;;6.18;;
14102;SDS011;7129;48.832;12.472;2022-09-21T08:48:18;5.97;;;5.38;;
14102;SDS011;7129;48.832;12.472;2022-09-21T08:53:24;8.30;;;6.95;;
14102;SDS011;7129;48.832;12.472;2022-09-21T08:58:32;7.43;;;6.72;;
14102;SDS011;7129;48.832;12.472;2022-09-21T09:20:11;6.00;;;5.50;;
14102;SDS011;7129;48.832;12.472;2022-09-21T09:25:16;6.72;;;6.10;;
14102;SDS011;7129;48.832;12.472;2022-09-21T09:30:22;5.93;;;5.28;;
14102;SDS011;7129;48.832;12.472;2022-09-21T09:47:02;5.65;;;4.60;;
14102;SDS011;7129;48.832;12.472;2022-09-21T10:02:35;5.32;;;4.88;;
14102;SDS011;7129;48.832;12.472;2022-09-21T10:18:14;4.70;;;4.40;;
14102;SDS011;7129;48.832;12.472;2022-09-21T10:23:20;4.93;;;4.47;;
14102;SDS011;7129;48.832;12.472;2022-09-21T10:28:56;4.32;;;4.03;;
14102;SDS011;7129;48.832;12.472;2022-09-21T10:45:13;4.75;;;4.35;;
14102;SDS011;7129;48.832;12.472;2022-09-21T10:50:20;5.03;;;4.63;;
14102;SDS011;7129;48.832;12.472;2022-09-21T11:06:21;5.13;;;4.72;;
14102;SDS011;7129;48.832;12.472;2022-09-21T11:17:38;3.90;;;3.60;;
14102;SDS011;7129;48.832;12.472;2022-09-21T11:44:59;3.88;;;3.58;;
14102;SDS011;7129;48.832;12.472;2022-09-21T14:48:58;0.85;;;0.85;;
14102;SDS011;7129;48.832;12.472;2022-09-21T15:00:19;2.25;;;1.13;;
14102;SDS011;7129;48.832;12.472;2022-09-21T15:54:40;1.52;;;1.42;;
14102;SDS011;7129;48.832;12.472;2022-09-21T15:59:45;5.30;;;1.50;;
14102;SDS011;7129;48.832;12.472;2022-09-21T16:04:47;1.90;;;1.80;;
14102;SDS011;7129;48.832;12.472;2022-09-21T16:09:52;1.13;;;0.90;;
14102;SDS011;7129;48.832;12.472;2022-09-21T16:20:38;2.45;;;1.27;;
14102;SDS011;7129;48.832;12.472;2022-09-21T16:25:44;1.10;;;1.10;;
14102;SDS011;7129;48.832;12.472;2022-09-21T16:30:54;1.60;;;1.25;;
14102;SDS011;7129;48.832;12.472;2022-09-21T16:35:58;1.15;;;1.13;;
14102;SDS011;7129;48.832;12.472;2022-09-21T16:41:05;1.73;;;1.15;;
14102;SDS011;7129;48.832;12.472;2022-09-21T16:46:08;1.30;;;1.20;;
14102;SDS011;7129;48.832;12.472;2022-09-21T16:51:10;1.08;;;1.08;;
14102;SDS011;7129;48.832;12.472;2022-09-21T16:56:14;1.40;;;1.20;;
14102;SDS011;7129;48.832;12.472;2022-09-21T17:01:17;1.63;;;1.30;;
14102;SDS011;7129;48.832;12.472;2022-09-21T17:06:20;1.30;;;1.20;;
14102;SDS011;7129;48.832;12.472;2022-09-21T17:11:23;1.58;;;1.20;;
14102;SDS011;7129;48.832;12.472;2022-09-21T17:16:27;1.65;;;1.45;;
14102;SDS011;7129;48.832;12.472;2022-09-21T17:27:00;1.80;;;1.15;;
14102;SDS011;7129;48.832;12.472;2022-09-21T17:32:02;1.48;;;1.38;;
14102;SDS011;7129;48.832;12.472;2022-09-21T17:37:08;1.70;;;1.60;;
14102;SDS011;7129;48.832;12.472;2022-09-21T17:42:13;2.17;;;1.88;;
14102;SDS011;7129;48.832;12.472;2022-09-21T17:47:19;1.60;;;1.50;;
14102;SDS011;7129;48.832;12.472;2022-09-21T17:52:37;2.28;;;1.63;;
14102;SDS011;7129;48.832;12.472;2022-09-21T18:03:37;1.90;;;1.77;;
14102;SDS011;7129;48.832;12.472;2022-09-21T18:08:41;1.48;;;1.38;;
14102;SDS011;7129;48.832;12.472;2022-09-21T18:24:57;2.50;;;1.90;;
14102;SDS011;7129;48.832;12.472;2022-09-21T18:30:31;1.70;;;1.60;;
14102;SDS011;7129;48.832;12.472;2022-09-21T18:41:14;1.50;;;1.42;;
14102;SDS011;7129;48.832;12.472;2022-09-21T18:46:25;3.15;;;1.77;;
14102;SDS011;7129;48.832;12.472;2022-09-21T18:51:35;1.80;;;1.70;;
14102;SDS011;7129;48.832;12.472;2022-09-21T19:02:10;1.67;;;1.58;;
